sensor_id;sensor_type;location;lat;lon;timestamp;P1;durP1;ratioP1;P2;durP2;ratioP2
62852;SDS011;49205;44.868;38.140;2023-01-24T00:01:47;44.98;;;22.17;;
62852;SDS011;49205;44.868;38.140;2023-01-24T00:04:15;44.67;;;20.82;;
62852;SDS011;49205;44.868;38.140;2023-01-24T00:06:44;45.30;;;22.60;;
62852;SDS011;49205;44.868;38.140;2023-01-24T00:09:12;47.90;;;21.40;;
62852;SDS011;49205;44.868;38.140;2023-01-24T00:11:41;44.77;;;22.27;;
62852;SDS011;49205;44.868;38.140;2023-01-24T00:14:10;54.33;;;22.70;;
62852;SDS011;49205;44.868;38.140;2023-01-24T00:16:38;41.95;;;21.50;;
62852;SDS011;49205;44.868;38.140;2023-01-24T00:19:07;49.27;;;23.40;;
62852;SDS011;49205;44.868;38.140;2023-01-24T00:21:35;47.08;;;21.75;;
62852;SDS011;49205;44.868;38.140;2023-01-24T00:24:04;40.48;;;21.12;;
62852;SDS011;49205;44.868;38.140;2023-01-24T00:26:33;44.98;;;22.10;;
62852;SDS011;49205;44.868;38.140;2023-01-24T00:29:01;38.40;;;21.02;;
62852;SDS011;49205;44.868;38.140;2023-01-24T00:31:29;47.40;;;22.13;;
62852;SDS011;49205;44.868;38.140;2023-01-24T00:33:58;50.80;;;22.75;;
62852;SDS011;49205;44.868;38.140;2023-01-24T00:36:26;48.78;;;22.67;;
62852;SDS011;49205;44.868;38.140;2023-01-24T00:38:55;46.88;;;20.68;;
62852;SDS011;49205;44.868;38.140;2023-01-24T00:41:25;51.63;;;22.05;;
62852;SDS011;49205;44.868;38.140;2023-01-24T00:43:53;49.13;;;24.82;;
62852;SDS011;49205;44.868;38.140;2023-01-24T00:46:22;37.08;;;20.35;;
62852;SDS011;49205;44.868;38.140;2023-01-24T00:48:51;42.53;;;21.20;;
62852;SDS011;49205;44.868;38.140;2023-01-24T00:51:20;49.42;;;22.30;;
62852;SDS011;49205;44.868;38.140;2023-01-24T00:53:48;42.25;;;19.87;;
62852;SDS011;49205;44.868;38.140;2023-01-24T00:56:17;48.45;;;20.62;;
62852;SDS011;49205;44.868;38.140;2023-01-24T00:58:46;35.52;;;19.98;;
62852;SDS011;49205;44.868;38.140;2023-01-24T01:01:15;42.23;;;21.65;;
62852;SDS011;49205;44.868;38.140;2023-01-24T01:03:44;44.77;;;21.42;;
62852;SDS011;49205;44.868;38.140;2023-01-24T01:06:14;48.55;;;21.40;;
62852;SDS011;49205;44.868;38.140;2023-01-24T01:08:42;43.00;;;20.65;;
62852;SDS011;49205;44.868;38.140;2023-01-24T01:11:13;36.70;;;20.45;;
62852;SDS011;49205;44.868;38.140;2023-01-24T01:13:41;42.65;;;21.90;;
62852;SDS011;49205;44.868;38.140;2023-01-24T01:16:12;51.80;;;22.42;;
62852;SDS011;49205;44.868;38.140;2023-01-24T01:18:40;49.10;;;22.58;;
62852;SDS011;49205;44.868;38.140;2023-01-24T01:21:10;43.33;;;20.02;;
62852;SDS011;49205;44.868;38.140;2023-01-24T01:23:39;44.18;;;21.23;;
62852;SDS011;49205;44.868;38.140;2023-01-24T01:26:08;35.83;;;20.55;;
62852;SDS011;49205;44.868;38.140;2023-01-24T01:28:37;45.50;;;19.98;;
62852;SDS011;49205;44.868;38.140;2023-01-24T01:31:05;41.30;;;21.42;;
62852;SDS011;49205;44.868;38.140;2023-01-24T01:33:34;58.10;;;21.62;;
62852;SDS011;49205;44.868;38.140;2023-01-24T01:36:03;51.25;;;23.83;;
62852;SDS011;49205;44.868;38.140;2023-01-24T01:38:31;39.48;;;22.60;;
62852;SDS011;49205;44.868;38.140;2023-01-24T01:40:59;44.23;;;22.15;;
62852;SDS011;49205;44.868;38.140;2023-01-24T01:43:28;46.42;;;21.23;;
62852;SDS011;49205;44.868;38.140;2023-01-24T01:46:06;48.40;;;24.18;;
62852;SDS011;49205;44.868;38.140;2023-01-24T01:48:33;54.67;;;24.72;;
62852;SDS011;49205;44.868;38.140;2023-01-24T01:53:46;46.45;;;22.15;;
62852;SDS011;49205;44.868;38.140;2023-01-24T01:56:25;53.75;;;22.42;;
62852;SDS011;49205;44.868;38.140;2023-01-24T01:58:44;55.95;;;23.32;;
62852;SDS011;49205;44.868;38.140;2023-01-24T02:01:13;39.83;;;20.05;;
62852;SDS011;49205;44.868;38.140;2023-01-24T02:03:46;47.70;;;22.62;;
62852;SDS011;49205;44.868;38.140;2023-01-24T02:06:35;45.43;;;23.07;;
62852;SDS011;49205;44.868;38.140;2023-01-24T02:08:47;55.40;;;23.12;;
62852;SDS011;49205;44.868;38.140;2023-01-24T02:11:16;65.08;;;24.52;;
62852;SDS011;49205;44.868;38.140;2023-01-24T02:14:03;68.78;;;25.62;;
62852;SDS011;49205;44.868;38.140;2023-01-24T02:16:50;59.93;;;23.02;;
62852;SDS011;49205;44.868;38.140;2023-01-24T02:19:43;64.85;;;24.75;;
62852;SDS011;49205;44.868;38.140;2023-01-24T02:21:49;65.67;;;26.25;;
62852;SDS011;49205;44.868;38.140;2023-01-24T02:24:21;66.95;;;25.17;;
62852;SDS011;49205;44.868;38.140;2023-01-24T02:26:48;79.70;;;27.05;;
62852;SDS011;49205;44.868;38.140;2023-01-24T02:29:16;74.07;;;26.93;;
62852;SDS011;49205;44.868;38.140;2023-01-24T02:31:53;119.22;;;29.23;;
62852;SDS011;49205;44.868;38.140;2023-01-24T02:34:21;87.25;;;24.18;;
62852;SDS011;49205;44.868;38.140;2023-01-24T02:36:52;99.03;;;25.92;;
62852;SDS011;49205;44.868;38.140;2023-01-24T02:39:22;71.55;;;21.77;;
62852;SDS011;49205;44.868;38.140;2023-01-24T02:41:56;59.23;;;22.15;;
62852;SDS011;49205;44.868;38.140;2023-01-24T02:44:28;86.85;;;23.18;;
62852;SDS011;49205;44.868;38.140;2023-01-24T02:46:50;68.72;;;21.62;;
62852;SDS011;49205;44.868;38.140;2023-01-24T02:49:18;81.85;;;22.55;;
62852;SDS011;49205;44.868;38.140;2023-01-24T02:51:46;80.07;;;22.07;;
62852;SDS011;49205;44.868;38.140;2023-01-24T02:54:33;93.85;;;21.23;;
62852;SDS011;49205;44.868;38.140;2023-01-24T02:57:02;80.87;;;21.57;;
62852;SDS011;49205;44.868;38.140;2023-01-24T02:59:48;55.92;;;21.73;;
62852;SDS011;49205;44.868;38.140;2023-01-24T03:02:17;43.92;;;21.37;;
62852;SDS011;49205;44.868;38.140;2023-01-24T03:04:45;102.22;;;24.77;;
62852;SDS011;49205;44.868;38.140;2023-01-24T03:07:14;61.30;;;22.42;;
62852;SDS011;49205;44.868;38.140;2023-01-24T03:09:44;85.00;;;21.85;;
62852;SDS011;49205;44.868;38.140;2023-01-24T03:12:18;90.40;;;23.32;;
62852;SDS011;49205;44.868;38.140;2023-01-24T03:15:05;103.35;;;26.68;;
62852;SDS011;49205;44.868;38.140;2023-01-24T03:17:52;103.50;;;30.45;;
62852;SDS011;49205;44.868;38.140;2023-01-24T03:20:38;74.45;;;28.27;;
62852;SDS011;49205;44.868;38.140;2023-01-24T03:23:24;64.72;;;25.85;;
62852;SDS011;49205;44.868;38.140;2023-01-24T03:26:11;97.35;;;26.68;;
62852;SDS011;49205;44.868;38.140;2023-01-24T03:28:57;72.35;;;28.80;;
62852;SDS011;49205;44.868;38.140;2023-01-24T03:31:44;80.25;;;26.77;;
62852;SDS011;49205;44.868;38.140;2023-01-24T03:34:31;73.57;;;24.98;;
62852;SDS011;49205;44.868;38.140;2023-01-24T03:37:00;87.53;;;25.48;;
62852;SDS011;49205;44.868;38.140;2023-01-24T03:39:29;84.20;;;23.38;;
62852;SDS011;49205;44.868;38.140;2023-01-24T03:42:16;71.55;;;24.23;;
62852;SDS011;49205;44.868;38.140;2023-01-24T03:44:46;52.27;;;21.87;;
62852;SDS011;49205;44.868;38.140;2023-01-24T03:47:14;64.30;;;23.98;;
62852;SDS011;49205;44.868;38.140;2023-01-24T03:49:43;100.62;;;32.17;;
62852;SDS011;49205;44.868;38.140;2023-01-24T03:52:30;62.50;;;22.93;;
62852;SDS011;49205;44.868;38.140;2023-01-24T03:55:01;64.37;;;22.02;;
62852;SDS011;49205;44.868;38.140;2023-01-24T03:57:30;58.45;;;20.95;;
62852;SDS011;49205;44.868;38.140;2023-01-24T04:00:00;53.42;;;19.90;;
62852;SDS011;49205;44.868;38.140;2023-01-24T04:02:30;116.30;;;34.03;;
62852;SDS011;49205;44.868;38.140;2023-01-24T04:04:58;80.35;;;25.95;;
62852;SDS011;49205;44.868;38.140;2023-01-24T04:10:11;54.73;;;20.08;;
62852;SDS011;49205;44.868;38.140;2023-01-24T04:12:42;51.80;;;19.23;;
62852;SDS011;49205;44.868;38.140;2023-01-24T04:15:14;55.65;;;21.10;;
62852;SDS011;49205;44.868;38.140;2023-01-24T04:17:43;55.23;;;19.75;;
62852;SDS011;49205;44.868;38.140;2023-01-24T04:20:12;57.15;;;18.90;;
62852;SDS011;49205;44.868;38.140;2023-01-24T04:22:42;71.37;;;21.25;;
62852;SDS011;49205;44.868;38.140;2023-01-24T04:25:11;71.97;;;27.62;;
62852;SDS011;49205;44.868;38.140;2023-01-24T04:27:40;92.02;;;27.82;;
62852;SDS011;49205;44.868;38.140;2023-01-24T04:30:11;85.32;;;24.40;;
62852;SDS011;49205;44.868;38.140;2023-01-24T04:32:41;115.60;;;24.10;;
62852;SDS011;49205;44.868;38.140;2023-01-24T04:35:18;112.35;;;24.35;;
62852;SDS011;49205;44.868;38.140;2023-01-24T04:37:52;61.77;;;19.62;;
62852;SDS011;49205;44.868;38.140;2023-01-24T04:40:25;48.35;;;19.15;;
62852;SDS011;49205;44.868;38.140;2023-01-24T04:42:55;57.10;;;19.73;;
62852;SDS011;49205;44.868;38.140;2023-01-24T04:45:24;61.25;;;21.77;;
62852;SDS011;49205;44.868;38.140;2023-01-24T04:47:54;49.30;;;21.15;;
62852;SDS011;49205;44.868;38.140;2023-01-24T04:50:23;61.08;;;21.17;;
62852;SDS011;49205;44.868;38.140;2023-01-24T04:52:52;50.90;;;19.05;;
62852;SDS011;49205;44.868;38.140;2023-01-24T04:55:21;49.73;;;21.42;;
62852;SDS011;49205;44.868;38.140;2023-01-24T04:57:51;42.43;;;19.07;;
62852;SDS011;49205;44.868;38.140;2023-01-24T05:00:19;51.92;;;19.87;;
62852;SDS011;49205;44.868;38.140;2023-01-24T05:02:50;54.20;;;21.20;;
62852;SDS011;49205;44.868;38.140;2023-01-24T05:05:19;41.75;;;19.67;;
62852;SDS011;49205;44.868;38.140;2023-01-24T05:07:48;57.15;;;19.67;;
62852;SDS011;49205;44.868;38.140;2023-01-24T05:10:18;75.57;;;21.70;;
62852;SDS011;49205;44.868;38.140;2023-01-24T05:12:48;42.50;;;19.62;;
62852;SDS011;49205;44.868;38.140;2023-01-24T05:15:18;50.17;;;19.30;;
62852;SDS011;49205;44.868;38.140;2023-01-24T05:17:48;60.63;;;21.00;;
62852;SDS011;49205;44.868;38.140;2023-01-24T05:20:18;63.13;;;20.27;;
62852;SDS011;49205;44.868;38.140;2023-01-24T05:22:47;63.30;;;22.42;;
62852;SDS011;49205;44.868;38.140;2023-01-24T05:25:17;52.45;;;19.32;;
62852;SDS011;49205;44.868;38.140;2023-01-24T05:27:47;60.38;;;21.45;;
62852;SDS011;49205;44.868;38.140;2023-01-24T05:30:16;45.38;;;19.52;;
62852;SDS011;49205;44.868;38.140;2023-01-24T05:32:45;62.10;;;28.70;;
62852;SDS011;49205;44.868;38.140;2023-01-24T05:35:15;69.72;;;23.70;;
62852;SDS011;49205;44.868;38.140;2023-01-24T05:37:44;52.23;;;21.93;;
62852;SDS011;49205;44.868;38.140;2023-01-24T05:40:13;77.40;;;23.38;;
62852;SDS011;49205;44.868;38.140;2023-01-24T05:42:43;60.80;;;21.05;;
62852;SDS011;49205;44.868;38.140;2023-01-24T05:45:12;61.10;;;24.82;;
62852;SDS011;49205;44.868;38.140;2023-01-24T05:47:41;55.38;;;21.10;;
62852;SDS011;49205;44.868;38.140;2023-01-24T05:50:11;63.98;;;21.50;;
62852;SDS011;49205;44.868;38.140;2023-01-24T05:52:41;66.72;;;23.18;;
62852;SDS011;49205;44.868;38.140;2023-01-24T05:55:10;60.65;;;24.07;;
62852;SDS011;49205;44.868;38.140;2023-01-24T05:57:40;87.85;;;23.85;;
62852;SDS011;49205;44.868;38.140;2023-01-24T06:00:25;58.75;;;23.98;;
62852;SDS011;49205;44.868;38.140;2023-01-24T06:03:10;53.98;;;20.85;;
62852;SDS011;49205;44.868;38.140;2023-01-24T06:05:39;52.13;;;21.27;;
62852;SDS011;49205;44.868;38.140;2023-01-24T06:08:08;52.88;;;22.02;;
62852;SDS011;49205;44.868;38.140;2023-01-24T06:10:37;61.30;;;23.80;;
62852;SDS011;49205;44.868;38.140;2023-01-24T06:13:07;77.85;;;24.07;;
62852;SDS011;49205;44.868;38.140;2023-01-24T06:15:35;62.20;;;23.38;;
62852;SDS011;49205;44.868;38.140;2023-01-24T06:18:04;69.67;;;23.32;;
62852;SDS011;49205;44.868;38.140;2023-01-24T06:20:33;103.65;;;25.37;;
62852;SDS011;49205;44.868;38.140;2023-01-24T06:23:03;87.80;;;25.02;;
62852;SDS011;49205;44.868;38.140;2023-01-24T06:25:34;67.10;;;27.20;;
62852;SDS011;49205;44.868;38.140;2023-01-24T06:28:03;68.10;;;25.15;;
62852;SDS011;49205;44.868;38.140;2023-01-24T06:30:31;57.80;;;23.42;;
62852;SDS011;49205;44.868;38.140;2023-01-24T06:33:07;71.62;;;27.27;;
62852;SDS011;49205;44.868;38.140;2023-01-24T06:35:36;64.77;;;27.17;;
62852;SDS011;49205;44.868;38.140;2023-01-24T06:38:03;67.25;;;24.63;;
62852;SDS011;49205;44.868;38.140;2023-01-24T06:40:31;77.75;;;28.12;;
62852;SDS011;49205;44.868;38.140;2023-01-24T06:43:00;52.90;;;24.02;;
62852;SDS011;49205;44.868;38.140;2023-01-24T06:45:28;59.75;;;25.35;;
62852;SDS011;49205;44.868;38.140;2023-01-24T06:47:57;64.65;;;27.42;;
62852;SDS011;49205;44.868;38.140;2023-01-24T06:50:26;80.67;;;27.15;;
62852;SDS011;49205;44.868;38.140;2023-01-24T06:52:56;56.08;;;24.25;;
62852;SDS011;49205;44.868;38.140;2023-01-24T06:55:24;57.35;;;24.20;;
62852;SDS011;49205;44.868;38.140;2023-01-24T06:57:59;78.30;;;26.93;;
62852;SDS011;49205;44.868;38.140;2023-01-24T07:00:28;71.40;;;24.72;;
62852;SDS011;49205;44.868;38.140;2023-01-24T07:03:00;108.80;;;26.95;;
62852;SDS011;49205;44.868;38.140;2023-01-24T07:05:30;63.17;;;24.50;;
62852;SDS011;49205;44.868;38.140;2023-01-24T12:18:56;38.10;;;20.43;;
62852;SDS011;49205;44.868;38.140;2023-01-24T12:21:40;47.03;;;22.22;;
62852;SDS011;49205;44.868;38.140;2023-01-24T12:26:45;37.90;;;20.23;;
62852;SDS011;49205;44.868;38.140;2023-01-24T12:37:49;35.60;;;18.07;;
62852;SDS011;49205;44.868;38.140;2023-01-24T12:40:22;36.05;;;20.27;;
62852;SDS011;49205;44.868;38.140;2023-01-24T12:45:47;35.80;;;19.25;;
62852;SDS011;49205;44.868;38.140;2023-01-24T12:48:16;46.37;;;21.75;;
62852;SDS011;49205;44.868;38.140;2023-01-24T12:53:35;37.25;;;20.12;;
62852;SDS011;49205;44.868;38.140;2023-01-24T12:56:21;37.88;;;18.30;;
62852;SDS011;49205;44.868;38.140;2023-01-24T12:58:53;40.23;;;21.52;;
62852;SDS011;49205;44.868;38.140;2023-01-24T13:01:30;46.48;;;21.40;;
62852;SDS011;49205;44.868;38.140;2023-01-24T13:07:14;43.80;;;21.77;;
62852;SDS011;49205;44.868;38.140;2023-01-24T13:09:55;43.65;;;19.98;;
62852;SDS011;49205;44.868;38.140;2023-01-24T13:12:26;41.60;;;20.48;;
62852;SDS011;49205;44.868;38.140;2023-01-24T13:14:57;41.00;;;18.42;;
62852;SDS011;49205;44.868;38.140;2023-01-24T13:20:16;40.50;;;20.12;;
62852;SDS011;49205;44.868;38.140;2023-01-24T13:23:03;39.18;;;20.60;;
62852;SDS011;49205;44.868;38.140;2023-01-24T13:28:22;34.90;;;19.07;;
62852;SDS011;49205;44.868;38.140;2023-01-24T13:33:45;45.67;;;21.23;;
62852;SDS011;49205;44.868;38.140;2023-01-24T13:36:20;49.55;;;22.75;;
62852;SDS011;49205;44.868;38.140;2023-01-24T13:38:51;40.67;;;20.92;;
62852;SDS011;49205;44.868;38.140;2023-01-24T13:51:58;44.73;;;21.77;;
62852;SDS011;49205;44.868;38.140;2023-01-24T13:54:38;43.60;;;23.35;;
62852;SDS011;49205;44.868;38.140;2023-01-24T14:02:42;40.05;;;20.27;;
62852;SDS011;49205;44.868;38.140;2023-01-24T14:24:33;60.33;;;23.67;;
62852;SDS011;49205;44.868;38.140;2023-01-24T14:27:13;44.60;;;23.05;;
62852;SDS011;49205;44.868;38.140;2023-01-24T14:29:38;58.83;;;24.67;;
62852;SDS011;49205;44.868;38.140;2023-01-24T14:34:59;81.20;;;29.87;;
62852;SDS011;49205;44.868;38.140;2023-01-24T14:37:26;109.25;;;29.65;;
62852;SDS011;49205;44.868;38.140;2023-01-24T14:40:08;65.83;;;27.07;;
62852;SDS011;49205;44.868;38.140;2023-01-24T14:42:26;75.85;;;33.60;;
62852;SDS011;49205;44.868;38.140;2023-01-24T14:44:55;66.02;;;27.85;;
62852;SDS011;49205;44.868;38.140;2023-01-24T14:47:29;68.67;;;29.98;;
62852;SDS011;49205;44.868;38.140;2023-01-24T14:49:59;64.65;;;25.60;;
62852;SDS011;49205;44.868;38.140;2023-01-24T14:52:32;60.43;;;27.85;;
62852;SDS011;49205;44.868;38.140;2023-01-24T14:55:12;73.72;;;27.93;;
62852;SDS011;49205;44.868;38.140;2023-01-24T14:57:32;47.45;;;25.95;;
62852;SDS011;49205;44.868;38.140;2023-01-24T15:00:22;44.08;;;25.80;;
62852;SDS011;49205;44.868;38.140;2023-01-24T15:02:31;60.03;;;27.73;;
62852;SDS011;49205;44.868;38.140;2023-01-24T15:05:00;77.47;;;29.02;;
62852;SDS011;49205;44.868;38.140;2023-01-24T15:07:28;60.23;;;28.85;;
62852;SDS011;49205;44.868;38.140;2023-01-24T15:09:57;54.90;;;27.22;;
62852;SDS011;49205;44.868;38.140;2023-01-24T15:12:29;59.20;;;28.10;;
62852;SDS011;49205;44.868;38.140;2023-01-24T15:14:59;58.15;;;27.52;;
62852;SDS011;49205;44.868;38.140;2023-01-24T15:17:28;66.28;;;28.87;;
62852;SDS011;49205;44.868;38.140;2023-01-24T15:19:58;60.95;;;29.92;;
62852;SDS011;49205;44.868;38.140;2023-01-24T15:22:27;72.50;;;31.17;;
62852;SDS011;49205;44.868;38.140;2023-01-24T15:24:57;74.77;;;29.50;;
62852;SDS011;49205;44.868;38.140;2023-01-24T15:40:49;58.10;;;26.90;;
62852;SDS011;49205;44.868;38.140;2023-01-24T15:43:19;54.27;;;24.52;;
62852;SDS011;49205;44.868;38.140;2023-01-24T15:46:05;60.00;;;25.95;;
62852;SDS011;49205;44.868;38.140;2023-01-24T15:49:01;53.30;;;22.75;;
62852;SDS011;49205;44.868;38.140;2023-01-24T15:51:33;55.35;;;21.90;;
62852;SDS011;49205;44.868;38.140;2023-01-24T15:54:02;45.85;;;21.82;;
62852;SDS011;49205;44.868;38.140;2023-01-24T15:56:31;47.23;;;20.23;;
62852;SDS011;49205;44.868;38.140;2023-01-24T15:59:00;46.05;;;22.05;;
62852;SDS011;49205;44.868;38.140;2023-01-24T16:01:28;40.12;;;20.95;;
62852;SDS011;49205;44.868;38.140;2023-01-24T16:04:00;49.63;;;21.70;;
62852;SDS011;49205;44.868;38.140;2023-01-24T16:06:27;67.17;;;25.23;;
62852;SDS011;49205;44.868;38.140;2023-01-24T16:08:56;53.23;;;24.47;;
62852;SDS011;49205;44.868;38.140;2023-01-24T16:11:24;60.40;;;25.17;;
62852;SDS011;49205;44.868;38.140;2023-01-24T16:13:53;66.33;;;28.00;;
62852;SDS011;49205;44.868;38.140;2023-01-24T16:16:23;51.55;;;24.77;;
62852;SDS011;49205;44.868;38.140;2023-01-24T16:18:51;59.60;;;27.58;;
62852;SDS011;49205;44.868;38.140;2023-01-24T16:21:20;58.30;;;26.05;;
62852;SDS011;49205;44.868;38.140;2023-01-24T16:23:48;51.77;;;26.75;;
62852;SDS011;49205;44.868;38.140;2023-01-24T16:26:23;63.00;;;28.32;;
62852;SDS011;49205;44.868;38.140;2023-01-24T16:28:52;61.13;;;27.73;;
62852;SDS011;49205;44.868;38.140;2023-01-24T16:31:21;68.87;;;28.90;;
62852;SDS011;49205;44.868;38.140;2023-01-24T16:33:49;62.53;;;30.05;;
62852;SDS011;49205;44.868;38.140;2023-01-24T16:36:18;66.65;;;28.38;;
62852;SDS011;49205;44.868;38.140;2023-01-24T16:38:47;64.22;;;25.95;;
62852;SDS011;49205;44.868;38.140;2023-01-24T16:41:15;70.78;;;28.90;;
62852;SDS011;49205;44.868;38.140;2023-01-24T16:43:44;55.88;;;29.27;;
62852;SDS011;49205;44.868;38.140;2023-01-24T16:46:19;71.60;;;31.30;;
62852;SDS011;49205;44.868;38.140;2023-01-24T16:48:49;71.17;;;32.75;;
62852;SDS011;49205;44.868;38.140;2023-01-24T16:51:18;62.62;;;31.33;;
62852;SDS011;49205;44.868;38.140;2023-01-24T16:53:47;67.22;;;34.83;;
62852;SDS011;49205;44.868;38.140;2023-01-24T16:56:15;72.87;;;33.48;;
62852;SDS011;49205;44.868;38.140;2023-01-24T16:58:44;63.20;;;33.67;;
62852;SDS011;49205;44.868;38.140;2023-01-24T17:01:12;76.57;;;34.38;;
62852;SDS011;49205;44.868;38.140;2023-01-24T17:03:40;82.85;;;34.75;;
62852;SDS011;49205;44.868;38.140;2023-01-24T17:06:10;81.75;;;31.45;;
62852;SDS011;49205;44.868;38.140;2023-01-24T17:08:39;77.92;;;32.28;;
62852;SDS011;49205;44.868;38.140;2023-01-24T17:11:08;74.10;;;28.30;;
62852;SDS011;49205;44.868;38.140;2023-01-24T17:13:37;70.37;;;30.65;;
62852;SDS011;49205;44.868;38.140;2023-01-24T17:16:06;76.00;;;33.15;;
62852;SDS011;49205;44.868;38.140;2023-01-24T17:18:36;65.75;;;31.97;;
62852;SDS011;49205;44.868;38.140;2023-01-24T17:21:05;82.88;;;32.15;;
62852;SDS011;49205;44.868;38.140;2023-01-24T17:23:34;77.03;;;31.50;;
62852;SDS011;49205;44.868;38.140;2023-01-24T17:26:06;74.42;;;31.90;;
62852;SDS011;49205;44.868;38.140;2023-01-24T17:28:35;70.52;;;28.85;;
62852;SDS011;49205;44.868;38.140;2023-01-24T17:31:07;64.35;;;29.37;;
62852;SDS011;49205;44.868;38.140;2023-01-24T17:33:36;78.92;;;30.00;;
62852;SDS011;49205;44.868;38.140;2023-01-24T17:36:05;76.97;;;31.12;;
62852;SDS011;49205;44.868;38.140;2023-01-24T17:38:34;73.62;;;30.97;;
62852;SDS011;49205;44.868;38.140;2023-01-24T17:41:03;81.63;;;31.68;;
62852;SDS011;49205;44.868;38.140;2023-01-24T17:43:32;73.92;;;30.02;;
62852;SDS011;49205;44.868;38.140;2023-01-24T17:46:00;61.37;;;29.67;;
62852;SDS011;49205;44.868;38.140;2023-01-24T17:48:28;69.67;;;28.70;;
62852;SDS011;49205;44.868;38.140;2023-01-24T17:50:57;62.95;;;29.20;;
62852;SDS011;49205;44.868;38.140;2023-01-24T17:53:25;66.47;;;29.18;;
62852;SDS011;49205;44.868;38.140;2023-01-24T17:55:54;58.38;;;26.00;;
62852;SDS011;49205;44.868;38.140;2023-01-24T17:58:23;74.17;;;30.25;;
62852;SDS011;49205;44.868;38.140;2023-01-24T18:00:51;57.48;;;27.30;;
62852;SDS011;49205;44.868;38.140;2023-01-24T18:03:20;69.45;;;28.62;;
62852;SDS011;49205;44.868;38.140;2023-01-24T18:05:52;65.12;;;30.35;;
62852;SDS011;49205;44.868;38.140;2023-01-24T18:08:20;64.60;;;27.22;;
62852;SDS011;49205;44.868;38.140;2023-01-24T18:10:51;63.15;;;28.05;;
62852;SDS011;49205;44.868;38.140;2023-01-24T18:13:21;55.30;;;28.35;;
62852;SDS011;49205;44.868;38.140;2023-01-24T18:15:59;54.98;;;28.70;;
62852;SDS011;49205;44.868;38.140;2023-01-24T18:18:28;55.75;;;25.88;;
62852;SDS011;49205;44.868;38.140;2023-01-24T18:20:58;62.50;;;28.73;;
62852;SDS011;49205;44.868;38.140;2023-01-24T18:23:26;55.48;;;25.88;;
62852;SDS011;49205;44.868;38.140;2023-01-24T18:25:58;66.00;;;27.35;;
62852;SDS011;49205;44.868;38.140;2023-01-24T18:28:24;51.48;;;27.82;;
62852;SDS011;49205;44.868;38.140;2023-01-24T18:30:53;60.98;;;26.07;;
62852;SDS011;49205;44.868;38.140;2023-01-24T18:33:21;58.45;;;26.65;;
62852;SDS011;49205;44.868;38.140;2023-01-24T18:35:50;49.05;;;23.57;;
62852;SDS011;49205;44.868;38.140;2023-01-24T18:38:19;47.25;;;25.68;;
62852;SDS011;49205;44.868;38.140;2023-01-24T18:40:47;52.17;;;24.60;;
62852;SDS011;49205;44.868;38.140;2023-01-24T18:43:16;51.33;;;26.23;;
62852;SDS011;49205;44.868;38.140;2023-01-24T18:45:45;54.05;;;26.17;;
62852;SDS011;49205;44.868;38.140;2023-01-24T18:48:14;64.58;;;26.85;;
62852;SDS011;49205;44.868;38.140;2023-01-24T18:50:42;54.75;;;28.42;;
62852;SDS011;49205;44.868;38.140;2023-01-24T18:53:11;58.48;;;26.23;;
62852;SDS011;49205;44.868;38.140;2023-01-24T18:55:39;71.45;;;27.75;;
62852;SDS011;49205;44.868;38.140;2023-01-24T18:58:07;64.22;;;26.75;;
62852;SDS011;49205;44.868;38.140;2023-01-24T19:00:36;59.95;;;28.65;;
62852;SDS011;49205;44.868;38.140;2023-01-24T19:03:04;54.27;;;25.30;;
62852;SDS011;49205;44.868;38.140;2023-01-24T19:05:33;63.30;;;25.65;;
62852;SDS011;49205;44.868;38.140;2023-01-24T19:08:01;58.70;;;26.95;;
62852;SDS011;49205;44.868;38.140;2023-01-24T19:10:30;51.50;;;25.60;;
62852;SDS011;49205;44.868;38.140;2023-01-24T19:12:58;66.75;;;28.38;;
62852;SDS011;49205;44.868;38.140;2023-01-24T19:15:27;57.43;;;27.67;;
62852;SDS011;49205;44.868;38.140;2023-01-24T19:17:56;53.58;;;26.50;;
62852;SDS011;49205;44.868;38.140;2023-01-24T19:20:24;63.58;;;28.17;;
62852;SDS011;49205;44.868;38.140;2023-01-24T19:22:53;44.70;;;24.20;;
62852;SDS011;49205;44.868;38.140;2023-01-24T19:25:21;60.80;;;27.30;;
62852;SDS011;49205;44.868;38.140;2023-01-24T19:27:50;54.65;;;25.85;;
62852;SDS011;49205;44.868;38.140;2023-01-24T19:30:19;48.17;;;23.45;;
62852;SDS011;49205;44.868;38.140;2023-01-24T19:32:47;51.02;;;24.18;;
62852;SDS011;49205;44.868;38.140;2023-01-24T19:35:17;49.53;;;27.37;;
62852;SDS011;49205;44.868;38.140;2023-01-24T19:37:45;49.98;;;26.87;;
62852;SDS011;49205;44.868;38.140;2023-01-24T19:40:15;50.55;;;26.00;;
62852;SDS011;49205;44.868;38.140;2023-01-24T19:42:44;56.65;;;29.15;;
62852;SDS011;49205;44.868;38.140;2023-01-24T19:45:14;56.90;;;28.27;;
62852;SDS011;49205;44.868;38.140;2023-01-24T19:47:45;59.75;;;27.30;;
62852;SDS011;49205;44.868;38.140;2023-01-24T19:50:14;59.75;;;29.10;;
62852;SDS011;49205;44.868;38.140;2023-01-24T19:52:43;54.25;;;25.00;;
62852;SDS011;49205;44.868;38.140;2023-01-24T19:55:11;49.45;;;27.45;;
62852;SDS011;49205;44.868;38.140;2023-01-24T19:57:40;63.70;;;28.23;;
62852;SDS011;49205;44.868;38.140;2023-01-24T20:00:08;61.53;;;30.88;;
62852;SDS011;49205;44.868;38.140;2023-01-24T20:02:37;50.28;;;26.80;;
62852;SDS011;49205;44.868;38.140;2023-01-24T20:05:06;57.83;;;27.87;;
62852;SDS011;49205;44.868;38.140;2023-01-24T20:07:34;49.45;;;26.82;;
62852;SDS011;49205;44.868;38.140;2023-01-24T20:10:03;45.75;;;25.50;;
62852;SDS011;49205;44.868;38.140;2023-01-24T20:12:32;53.63;;;26.05;;
62852;SDS011;49205;44.868;38.140;2023-01-24T20:15:00;54.63;;;28.07;;
62852;SDS011;49205;44.868;38.140;2023-01-24T20:17:28;54.05;;;29.12;;
62852;SDS011;49205;44.868;38.140;2023-01-24T20:19:57;52.83;;;29.23;;
62852;SDS011;49205;44.868;38.140;2023-01-24T20:22:25;57.27;;;29.48;;
62852;SDS011;49205;44.868;38.140;2023-01-24T20:24:54;50.38;;;27.77;;
62852;SDS011;49205;44.868;38.140;2023-01-24T20:27:23;64.42;;;30.48;;
62852;SDS011;49205;44.868;38.140;2023-01-24T20:29:51;54.58;;;25.02;;
62852;SDS011;49205;44.868;38.140;2023-01-24T20:32:20;53.08;;;27.52;;
62852;SDS011;49205;44.868;38.140;2023-01-24T20:34:50;59.88;;;26.60;;
62852;SDS011;49205;44.868;38.140;2023-01-24T20:37:18;57.80;;;26.65;;
62852;SDS011;49205;44.868;38.140;2023-01-24T20:39:47;57.60;;;27.73;;
62852;SDS011;49205;44.868;38.140;2023-01-24T20:42:15;53.87;;;26.65;;
62852;SDS011;49205;44.868;38.140;2023-01-24T20:44:44;49.58;;;26.52;;
62852;SDS011;49205;44.868;38.140;2023-01-24T20:47:14;60.80;;;27.07;;
62852;SDS011;49205;44.868;38.140;2023-01-24T20:49:42;59.77;;;30.12;;
62852;SDS011;49205;44.868;38.140;2023-01-24T20:52:11;51.70;;;25.55;;
62852;SDS011;49205;44.868;38.140;2023-01-24T20:54:40;57.27;;;27.77;;
62852;SDS011;49205;44.868;38.140;2023-01-24T20:57:08;48.95;;;24.72;;
62852;SDS011;49205;44.868;38.140;2023-01-24T20:59:37;60.95;;;27.80;;
62852;SDS011;49205;44.868;38.140;2023-01-24T21:02:07;53.38;;;26.40;;
62852;SDS011;49205;44.868;38.140;2023-01-24T21:04:35;47.62;;;25.82;;